sensor_id;sensor_type;location;lat;lon;timestamp;temperature;humidity
14103;DHT22;7129;48.832;12.472;2022-10-19T00:01:53;15.30;99.90
14103;DHT22;7129;48.832;12.472;2022-10-19T00:06:55;15.40;99.90
14103;DHT22;7129;48.832;12.472;2022-10-19T00:11:58;15.30;99.90
14103;DHT22;7129;48.832;12.472;2022-10-19T00:17:00;15.40;99.90
14103;DHT22;7129;48.832;12.472;2022-10-19T00:22:02;15.30;99.90
14103;DHT22;7129;48.832;12.472;2022-10-19T00:27:05;15.30;99.90
14103;DHT22;7129;48.832;12.472;2022-10-19T00:32:07;15.20;99.90
14103;DHT22;7129;48.832;12.472;2022-10-19T00:37:09;15.20;99.90
14103;DHT22;7129;48.832;12.472;2022-10-19T00:42:12;15.10;99.90
14103;DHT22;7129;48.832;12.472;2022-10-19T00:47:15;15.10;99.90
14103;DHT22;7129;48.832;12.472;2022-10-19T00:52:20;15.20;99.90
14103;DHT22;7129;48.832;12.472;2022-10-19T00:57:28;15.20;99.90
14103;DHT22;7129;48.832;12.472;2022-10-19T01:02:31;15.10;99.90
14103;DHT22;7129;48.832;12.472;2022-10-19T01:07:33;15.20;99.90
14103;DHT22;7129;48.832;12.472;2022-10-19T01:12:50;15.10;99.90
14103;DHT22;7129;48.832;12.472;2022-10-19T01:18:03;15.10;99.90
14103;DHT22;7129;48.832;12.472;2022-10-19T01:23:23;15.10;99.90
14103;DHT22;7129;48.832;12.472;2022-10-19T01:28:43;15.10;99.90
14103;DHT22;7129;48.832;12.472;2022-10-19T01:33:49;15.10;99.90
14103;DHT22;7129;48.832;12.472;2022-10-19T01:39:01;15.10;99.90
14103;DHT22;7129;48.832;12.472;2022-10-19T01:44:10;15.10;99.90
14103;DHT22;7129;48.832;12.472;2022-10-19T01:49:19;15.10;99.90
14103;DHT22;7129;48.832;12.472;2022-10-19T01:54:23;15.10;99.90
14103;DHT22;7129;48.832;12.472;2022-10-19T01:59:27;15.10;99.90
14103;DHT22;7129;48.832;12.472;2022-10-19T02:04:32;15.00;99.90
14103;DHT22;7129;48.832;12.472;2022-10-19T02:09:34;15.00;99.90
14103;DHT22;7129;48.832;12.472;2022-10-19T02:14:39;14.90;99.90
14103;DHT22;7129;48.832;12.472;2022-10-19T02:19:44;14.90;99.90
14103;DHT22;7129;48.832;12.472;2022-10-19T02:24:46;14.90;99.90
14103;DHT22;7129;48.832;12.472;2022-10-19T02:29:48;14.80;99.90
14103;DHT22;7129;48.832;12.472;2022-10-19T02:34:52;14.90;99.90
14103;DHT22;7129;48.832;12.472;2022-10-19T02:39:54;14.80;99.90
14103;DHT22;7129;48.832;12.472;2022-10-19T02:44:59;14.90;99.90
14103;DHT22;7129;48.832;12.472;2022-10-19T02:50:06;14.90;99.90
14103;DHT22;7129;48.832;12.472;2022-10-19T02:55:08;14.90;99.90
14103;DHT22;7129;48.832;12.472;2022-10-19T03:00:11;14.90;99.90
14103;DHT22;7129;48.832;12.472;2022-10-19T03:05:14;14.90;99.90
14103;DHT22;7129;48.832;12.472;2022-10-19T03:10:17;14.90;99.90
14103;DHT22;7129;48.832;12.472;2022-10-19T03:15:18;14.90;99.90
14103;DHT22;7129;48.832;12.472;2022-10-19T03:20:24;14.90;99.90
14103;DHT22;7129;48.832;12.472;2022-10-19T03:25:26;14.90;99.90
14103;DHT22;7129;48.832;12.472;2022-10-19T03:30:28;14.80;99.90
14103;DHT22;7129;48.832;12.472;2022-10-19T03:35:31;14.80;99.90
14103;DHT22;7129;48.832;12.472;2022-10-19T03:40:33;14.70;99.90
14103;DHT22;7129;48.832;12.472;2022-10-19T03:45:35;14.70;99.90
14103;DHT22;7129;48.832;12.472;2022-10-19T03:50:38;14.70;99.90
14103;DHT22;7129;48.832;12.472;2022-10-19T03:55:40;14.60;99.90
14103;DHT22;7129;48.832;12.472;2022-10-19T04:00:42;14.40;99.90
14103;DHT22;7129;48.832;12.472;2022-10-19T04:05:45;14.20;99.90
14103;DHT22;7129;48.832;12.472;2022-10-19T04:10:47;14.10;99.90
14103;DHT22;7129;48.832;12.472;2022-10-19T04:15:49;14.00;99.90
14103;DHT22;7129;48.832;12.472;2022-10-19T04:20:56;13.90;99.90
14103;DHT22;7129;48.832;12.472;2022-10-19T04:25:59;13.90;99.90
14103;DHT22;7129;48.832;12.472;2022-10-19T04:31:02;14.00;99.90
14103;DHT22;7129;48.832;12.472;2022-10-19T04:36:07;14.10;99.90
14103;DHT22;7129;48.832;12.472;2022-10-19T04:41:11;14.10;99.90
14103;DHT22;7129;48.832;12.472;2022-10-19T04:46:15;14.10;99.90
14103;DHT22;7129;48.832;12.472;2022-10-19T04:51:19;14.00;99.90
14103;DHT22;7129;48.832;12.472;2022-10-19T04:56:22;13.90;99.90
14103;DHT22;7129;48.832;12.472;2022-10-19T05:01:29;13.90;99.90
14103;DHT22;7129;48.832;12.472;2022-10-19T05:06:32;13.90;99.90
14103;DHT22;7129;48.832;12.472;2022-10-19T05:11:34;13.90;99.90
14103;DHT22;7129;48.832;12.472;2022-10-19T05:16:36;13.80;99.90
14103;DHT22;7129;48.832;12.472;2022-10-19T05:21:39;13.80;99.90
14103;DHT22;7129;48.832;12.472;2022-10-19T05:26:41;13.80;99.90
14103;DHT22;7129;48.832;12.472;2022-10-19T05:31:43;13.70;99.90
14103;DHT22;7129;48.832;12.472;2022-10-19T05:36:46;13.60;99.90
14103;DHT22;7129;48.832;12.472;2022-10-19T05:41:48;13.60;99.90
14103;DHT22;7129;48.832;12.472;2022-10-19T05:46:50;13.60;99.90
14103;DHT22;7129;48.832;12.472;2022-10-19T05:51:54;13.50;99.90
14103;DHT22;7129;48.832;12.472;2022-10-19T05:56:56;13.60;99.90
14103;DHT22;7129;48.832;12.472;2022-10-19T06:01:57;13.50;99.90
14103;DHT22;7129;48.832;12.472;2022-10-19T06:07:01;13.50;99.90
14103;DHT22;7129;48.832;12.472;2022-10-19T06:12:03;13.30;99.90
14103;DHT22;7129;48.832;12.472;2022-10-19T06:17:05;13.40;99.90
14103;DHT22;7129;48.832;12.472;2022-10-19T06:22:08;13.30;99.90
14103;DHT22;7129;48.832;12.472;2022-10-19T06:27:10;13.30;99.90
14103;DHT22;7129;48.832;12.472;2022-10-19T06:32:12;13.50;99.90
14103;DHT22;7129;48.832;12.472;2022-10-19T06:37:15;13.40;99.90
14103;DHT22;7129;48.832;12.472;2022-10-19T06:42:17;13.50;99.90
14103;DHT22;7129;48.832;12.472;2022-10-19T06:47:19;13.40;99.90
14103;DHT22;7129;48.832;12.472;2022-10-19T06:52:23;13.40;99.90
14103;DHT22;7129;48.832;12.472;2022-10-19T06:57:24;13.50;99.90
14103;DHT22;7129;48.832;12.472;2022-10-19T07:02:26;13.50;99.90
14103;DHT22;7129;48.832;12.472;2022-10-19T07:07:29;13.50;99.90
14103;DHT22;7129;48.832;12.472;2022-10-19T07:12:31;13.40;99.90
14103;DHT22;7129;48.832;12.472;2022-10-19T07:17:33;13.50;99.90
14103;DHT22;7129;48.832;12.472;2022-10-19T07:22:37;13.50;99.90
14103;DHT22;7129;48.832;12.472;2022-10-19T07:27:52;13.60;99.90
14103;DHT22;7129;48.832;12.472;2022-10-19T07:32:54;13.70;99.90
14103;DHT22;7129;48.832;12.472;2022-10-19T07:37:57;13.70;99.90
14103;DHT22;7129;48.832;12.472;2022-10-19T07:43:03;13.80;99.90
14103;DHT22;7129;48.832;12.472;2022-10-19T07:48:05;13.80;99.90
14103;DHT22;7129;48.832;12.472;2022-10-19T07:53:08;13.80;99.90
14103;DHT22;7129;48.832;12.472;2022-10-19T07:58:10;13.80;99.90
14103;DHT22;7129;48.832;12.472;2022-10-19T08:03:12;13.80;99.90
14103;DHT22;7129;48.832;12.472;2022-10-19T08:08:15;13.90;99.90
14103;DHT22;7129;48.832;12.472;2022-10-19T08:13:17;13.90;99.90
14103;DHT22;7129;48.832;12.472;2022-10-19T08:18:19;13.90;99.90
14103;DHT22;7129;48.832;12.472;2022-10-19T08:23:23;14.00;99.90
14103;DHT22;7129;48.832;12.472;2022-10-19T08:28:26;13.90;99.90
14103;DHT22;7129;48.832;12.472;2022-10-19T08:33:28;14.00;99.90
14103;DHT22;7129;48.832;12.472;2022-10-19T08:38:33;14.10;99.90
14103;DHT22;7129;48.832;12.472;2022-10-19T08:43:49;14.20;99.90
14103;DHT22;7129;48.832;12.472;2022-10-19T08:48:56;14.30;99.90
14103;DHT22;7129;48.832;12.472;2022-10-19T08:54:01;14.50;99.90
14103;DHT22;7129;48.832;12.472;2022-10-19T08:59:11;14.70;99.90
14103;DHT22;7129;48.832;12.472;2022-10-19T09:04:20;14.80;99.90
14103;DHT22;7129;48.832;12.472;2022-10-19T09:09:28;14.90;99.90
14103;DHT22;7129;48.832;12.472;2022-10-19T09:14:32;14.90;99.90
14103;DHT22;7129;48.832;12.472;2022-10-19T09:19:35;15.00;99.90
14103;DHT22;7129;48.832;12.472;2022-10-19T09:24:42;15.10;99.90
14103;DHT22;7129;48.832;12.472;2022-10-19T09:29:51;15.10;99.90
14103;DHT22;7129;48.832;12.472;2022-10-19T09:34:56;15.30;99.90
14103;DHT22;7129;48.832;12.472;2022-10-19T09:40:02;15.60;99.90
14103;DHT22;7129;48.832;12.472;2022-10-19T09:45:15;15.60;99.90
14103;DHT22;7129;48.832;12.472;2022-10-19T09:50:19;15.70;99.90
14103;DHT22;7129;48.832;12.472;2022-10-19T09:55:27;15.80;99.90
14103;DHT22;7129;48.832;12.472;2022-10-19T10:00:38;16.40;99.90
14103;DHT22;7129;48.832;12.472;2022-10-19T10:05:45;17.10;99.90
14103;DHT22;7129;48.832;12.472;2022-10-19T10:10:55;17.10;99.90
14103;DHT22;7129;48.832;12.472;2022-10-19T10:16:00;17.30;99.90
14103;DHT22;7129;48.832;12.472;2022-10-19T10:21:04;17.20;99.90
14103;DHT22;7129;48.832;12.472;2022-10-19T10:26:18;17.30;99.90
14103;DHT22;7129;48.832;12.472;2022-10-19T10:31:22;17.30;99.90
14103;DHT22;7129;48.832;12.472;2022-10-19T10:36:26;17.40;99.90
14103;DHT22;7129;48.832;12.472;2022-10-19T10:41:34;17.50;99.90
14103;DHT22;7129;48.832;12.472;2022-10-19T10:46:48;17.70;99.90
14103;DHT22;7129;48.832;12.472;2022-10-19T10:51:53;18.10;99.90
14103;DHT22;7129;48.832;12.472;2022-10-19T10:57:08;18.60;99.90
14103;DHT22;7129;48.832;12.472;2022-10-19T11:02:22;19.00;99.90
14103;DHT22;7129;48.832;12.472;2022-10-19T11:07:26;19.30;99.90
14103;DHT22;7129;48.832;12.472;2022-10-19T11:12:35;19.20;99.90
14103;DHT22;7129;48.832;12.472;2022-10-19T11:17:40;19.30;99.90
14103;DHT22;7129;48.832;12.472;2022-10-19T11:22:51;19.30;99.90
14103;DHT22;7129;48.832;12.472;2022-10-19T11:28:08;19.30;99.90
14103;DHT22;7129;48.832;12.472;2022-10-19T11:33:21;19.20;99.90
14103;DHT22;7129;48.832;12.472;2022-10-19T11:38:32;19.20;99.90
14103;DHT22;7129;48.832;12.472;2022-10-19T11:43:43;19.30;99.90
14103;DHT22;7129;48.832;12.472;2022-10-19T11:48:58;19.10;99.90
14103;DHT22;7129;48.832;12.472;2022-10-19T11:54:15;19.00;99.90
14103;DHT22;7129;48.832;12.472;2022-10-19T11:59:28;18.90;99.90
14103;DHT22;7129;48.832;12.472;2022-10-19T12:04:42;18.80;99.90
14103;DHT22;7129;48.832;12.472;2022-10-19T12:09:51;18.90;99.90
14103;DHT22;7129;48.832;12.472;2022-10-19T12:20:29;19.20;99.90
14103;DHT22;7129;48.832;12.472;2022-10-19T12:25:34;19.20;99.90
14103;DHT22;7129;48.832;12.472;2022-10-19T12:30:40;19.10;99.90
14103;DHT22;7129;48.832;12.472;2022-10-19T12:35:56;18.90;99.90
14103;DHT22;7129;48.832;12.472;2022-10-19T12:41:04;19.10;99.90
14103;DHT22;7129;48.832;12.472;2022-10-19T12:46:16;19.00;99.90
14103;DHT22;7129;48.832;12.472;2022-10-19T12:51:22;18.80;99.90
14103;DHT22;7129;48.832;12.472;2022-10-19T12:56:24;18.80;99.90
14103;DHT22;7129;48.832;12.472;2022-10-19T13:01:40;18.90;99.90
14103;DHT22;7129;48.832;12.472;2022-10-19T13:06:45;19.00;99.90
14103;DHT22;7129;48.832;12.472;2022-10-19T13:12:26;19.10;99.90
14103;DHT22;7129;48.832;12.472;2022-10-19T13:17:40;19.20;99.90
14103;DHT22;7129;48.832;12.472;2022-10-19T13:22:45;19.30;99.90
14103;DHT22;7129;48.832;12.472;2022-10-19T13:27:47;19.30;99.90
14103;DHT22;7129;48.832;12.472;2022-10-19T13:32:51;19.30;99.90
14103;DHT22;7129;48.832;12.472;2022-10-19T13:43:33;19.40;99.90
14103;DHT22;7129;48.832;12.472;2022-10-19T13:48:52;19.50;99.90
14103;DHT22;7129;48.832;12.472;2022-10-19T14:00:14;19.70;99.90
14103;DHT22;7129;48.832;12.472;2022-10-19T14:11:13;19.60;99.90
14103;DHT22;7129;48.832;12.472;2022-10-19T14:16:18;19.50;99.70
14103;DHT22;7129;48.832;12.472;2022-10-19T14:21:40;19.40;99.40
14103;DHT22;7129;48.832;12.472;2022-10-19T14:26:43;19.30;99.20
14103;DHT22;7129;48.832;12.472;2022-10-19T14:31:46;19.30;99.50
14103;DHT22;7129;48.832;12.472;2022-10-19T14:36:52;19.30;99.70
14103;DHT22;7129;48.832;12.472;2022-10-19T14:41:57;19.30;99.50
14103;DHT22;7129;48.832;12.472;2022-10-19T14:47:13;19.20;99.20
14103;DHT22;7129;48.832;12.472;2022-10-19T14:52:21;19.10;98.70
14103;DHT22;7129;48.832;12.472;2022-10-19T14:57:27;19.00;99.10
14103;DHT22;7129;48.832;12.472;2022-10-19T15:02:33;19.00;99.10
14103;DHT22;7129;48.832;12.472;2022-10-19T15:07:38;18.90;99.50
14103;DHT22;7129;48.832;12.472;2022-10-19T15:12:43;18.80;99.80
14103;DHT22;7129;48.832;12.472;2022-10-19T15:18:15;18.80;99.70
14103;DHT22;7129;48.832;12.472;2022-10-19T15:23:38;18.70;99.90
14103;DHT22;7129;48.832;12.472;2022-10-19T15:28:42;18.70;99.90
14103;DHT22;7129;48.832;12.472;2022-10-19T15:33:47;18.50;99.90
14103;DHT22;7129;48.832;12.472;2022-10-19T15:38:59;18.50;99.90
14103;DHT22;7129;48.832;12.472;2022-10-19T15:44:05;18.40;99.90
14103;DHT22;7129;48.832;12.472;2022-10-19T15:55:11;18.30;99.90
14103;DHT22;7129;48.832;12.472;2022-10-19T16:00:21;18.00;99.90
14103;DHT22;7129;48.832;12.472;2022-10-19T16:05:25;17.80;99.90
14103;DHT22;7129;48.832;12.472;2022-10-19T16:10:27;17.60;99.90
14103;DHT22;7129;48.832;12.472;2022-10-19T16:15:30;17.30;99.90
14103;DHT22;7129;48.832;12.472;2022-10-19T16:20:38;17.10;99.90
14103;DHT22;7129;48.832;12.472;2022-10-19T16:25:41;16.90;99.90
14103;DHT22;7129;48.832;12.472;2022-10-19T16:30:52;16.80;99.90
14103;DHT22;7129;48.832;12.472;2022-10-19T16:35:54;16.60;99.90
14103;DHT22;7129;48.832;12.472;2022-10-19T16:40:59;16.50;99.90
14103;DHT22;7129;48.832;12.472;2022-10-19T16:46:07;16.30;99.90
14103;DHT22;7129;48.832;12.472;2022-10-19T16:56:47;15.90;99.90
14103;DHT22;7129;48.832;12.472;2022-10-19T17:01:51;15.70;99.90
14103;DHT22;7129;48.832;12.472;2022-10-19T17:06:54;15.60;99.90
14103;DHT22;7129;48.832;12.472;2022-10-19T17:11:56;15.50;99.90
14103;DHT22;7129;48.832;12.472;2022-10-19T17:17:00;15.40;99.90
14103;DHT22;7129;48.832;12.472;2022-10-19T17:22:03;15.30;99.90
14103;DHT22;7129;48.832;12.472;2022-10-19T17:27:05;15.20;99.90
14103;DHT22;7129;48.832;12.472;2022-10-19T17:32:08;15.00;99.90
14103;DHT22;7129;48.832;12.472;2022-10-19T17:37:10;14.90;99.90
14103;DHT22;7129;48.832;12.472;2022-10-19T17:42:12;14.80;99.90
14103;DHT22;7129;48.832;12.472;2022-10-19T17:47:15;14.80;99.90
14103;DHT22;7129;48.832;12.472;2022-10-19T17:52:17;14.60;99.90
14103;DHT22;7129;48.832;12.472;2022-10-19T17:57:19;14.60;99.90
14103;DHT22;7129;48.832;12.472;2022-10-19T18:02:23;14.50;99.90
14103;DHT22;7129;48.832;12.472;2022-10-19T18:07:24;14.50;99.90
14103;DHT22;7129;48.832;12.472;2022-10-19T18:12:26;14.50;99.90
14103;DHT22;7129;48.832;12.472;2022-10-19T18:17:30;14.40;99.90
14103;DHT22;7129;48.832;12.472;2022-10-19T18:22:32;14.30;99.90
14103;DHT22;7129;48.832;12.472;2022-10-19T18:27:34;14.10;99.90
14103;DHT22;7129;48.832;12.472;2022-10-19T18:32:39;14.00;99.90
14103;DHT22;7129;48.832;12.472;2022-10-19T18:37:41;13.90;99.90
14103;DHT22;7129;48.832;12.472;2022-10-19T18:42:43;13.80;99.90
14103;DHT22;7129;48.832;12.472;2022-10-19T18:47:46;13.70;99.90
14103;DHT22;7129;48.832;12.472;2022-10-19T18:52:48;13.60;99.90
14103;DHT22;7129;48.832;12.472;2022-10-19T18:57:51;13.50;99.90
14103;DHT22;7129;48.832;12.472;2022-10-19T19:02:59;13.60;99.90
14103;DHT22;7129;48.832;12.472;2022-10-19T19:08:01;13.50;99.90
14103;DHT22;7129;48.832;12.472;2022-10-19T19:13:03;13.40;99.90
14103;DHT22;7129;48.832;12.472;2022-10-19T19:18:06;13.40;99.90
14103;DHT22;7129;48.832;12.472;2022-10-19T19:23:08;13.30;99.90
14103;DHT22;7129;48.832;12.472;2022-10-19T19:28:53;13.20;99.90
14103;DHT22;7129;48.832;12.472;2022-10-19T19:34:17;13.10;99.90
14103;DHT22;7129;48.832;12.472;2022-10-19T19:39:20;13.10;99.90
14103;DHT22;7129;48.832;12.472;2022-10-19T19:44:22;13.10;99.90
14103;DHT22;7129;48.832;12.472;2022-10-19T19:49:26;13.10;99.90
14103;DHT22;7129;48.832;12.472;2022-10-19T19:54:44;13.10;99.90
14103;DHT22;7129;48.832;12.472;2022-10-19T19:59:46;13.00;99.90
14103;DHT22;7129;48.832;12.472;2022-10-19T20:04:54;13.10;99.90
14103;DHT22;7129;48.832;12.472;2022-10-19T20:09:56;13.00;99.90
14103;DHT22;7129;48.832;12.472;2022-10-19T20:14:58;12.80;99.90
14103;DHT22;7129;48.832;12.472;2022-10-19T20:20:03;12.80;99.90
14103;DHT22;7129;48.832;12.472;2022-10-19T20:25:06;12.70;99.90
14103;DHT22;7129;48.832;12.472;2022-10-19T20:30:09;12.70;99.90
14103;DHT22;7129;48.832;12.472;2022-10-19T20:40:44;12.50;99.90
14103;DHT22;7129;48.832;12.472;2022-10-19T20:45:46;12.30;99.90
14103;DHT22;7129;48.832;12.472;2022-10-19T20:50:48;12.30;99.90
14103;DHT22;7129;48.832;12.472;2022-10-19T20:55:52;12.20;99.90
14103;DHT22;7129;48.832;12.472;2022-10-19T21:00:53;12.20;99.90
14103;DHT22;7129;48.832;12.472;2022-10-19T21:05:55;12.20;99.90
14103;DHT22;7129;48.832;12.472;2022-10-19T21:10:59;12.00;99.90
14103;DHT22;7129;48.832;12.472;2022-10-19T21:16:07;11.90;99.90
14103;DHT22;7129;48.832;12.472;2022-10-19T21:21:14;11.80;99.90
14103;DHT22;7129;48.832;12.472;2022-10-19T21:26:22;11.70;99.90
14103;DHT22;7129;48.832;12.472;2022-10-19T21:31:27;11.60;99.90
14103;DHT22;7129;48.832;12.472;2022-10-19T21:36:32;11.70;99.90
14103;DHT22;7129;48.832;12.472;2022-10-19T21:41:41;11.60;99.90
14103;DHT22;7129;48.832;12.472;2022-10-19T21:46:46;11.70;99.90
14103;DHT22;7129;48.832;12.472;2022-10-19T21:51:49;11.60;99.90
14103;DHT22;7129;48.832;12.472;2022-10-19T21:57:13;11.60;99.90
14103;DHT22;7129;48.832;12.472;2022-10-19T22:02:17;11.50;99.90
14103;DHT22;7129;48.832;12.472;2022-10-19T22:07:22;11.40;99.90
14103;DHT22;7129;48.832;12.472;2022-10-19T22:12:29;11.40;99.90
14103;DHT22;7129;48.832;12.472;2022-10-19T22:17:32;11.40;99.90
14103;DHT22;7129;48.832;12.472;2022-10-19T22:22:34;11.40;99.90
14103;DHT22;7129;48.832;12.472;2022-10-19T22:27:38;11.30;99.90
14103;DHT22;7129;48.832;12.472;2022-10-19T22:32:40;11.30;99.90
14103;DHT22;7129;48.832;12.472;2022-10-19T22:37:42;11.40;99.90
14103;DHT22;7129;48.832;12.472;2022-10-19T22:42:46;11.20;99.90
14103;DHT22;7129;48.832;12.472;2022-10-19T22:47:56;11.10;99.90
14103;DHT22;7129;48.832;12.472;2022-10-19T22:53:27;11.10;99.90
14103;DHT22;7129;48.832;12.472;2022-10-19T23:09:13;10.90;99.90
14103;DHT22;7129;48.832;12.472;2022-10-19T23:14:15;10.90;99.90
14103;DHT22;7129;48.832;12.472;2022-10-19T23:19:17;10.80;99.90
14103;DHT22;7129;48.832;12.472;2022-10-19T23:24:51;10.80;99.90
14103;DHT22;7129;48.832;12.472;2022-10-19T23:29:53;10.70;99.90
14103;DHT22;7129;48.832;12.472;2022-10-19T23:34:55;10.70;99.90
